Time;durP1;ratioP1;P1;durP2;ratioP2;P2;SDS_P1;SDS_P2;PMS_P1;PMS_P2;Temp;Humidity;BMP_temperature;BMP_pressure;BME280_temperature;BME280_humidity;BME280_pressure;Samples;Min_cycle;Max_cycle;Signal;HPM_P1;HPM_P2
2023/05/24 00:00:52;;;;;;;1.17;1.15;;;;;;;;;;5018199;28;58666;-68
2023/05/24 00:03:17;;;;;;;1.63;1.53;;;;;;;;;;5023456;28;58562;-68
2023/05/24 00:05:45;;;;;;;1.50;1.17;;;;;;;;;;5021301;28;58346;-69
2023/05/24 00:08:10;;;;;;;4.20;2.15;;;;;;;;;;5019219;28;58832;-66
2023/05/24 00:10:35;;;;;;;1.42;1.20;;;;;;;;;;5022317;28;58590;-69
2023/05/24 00:13:01;;;;;;;1.20;1.10;;;;;;;;;;5020942;28;58916;-69
2023/05/24 00:15:26;;;;;;;1.50;1.00;;;;;;;;;;5021025;28;58350;-67
2023/05/24 00:17:51;;;;;;;1.35;1.08;;;;;;;;;;5024512;28;58457;-68
2023/05/24 00:20:16;;;;;;;0.85;0.85;;;;;;;;;;5020335;28;58624;-68
2023/05/24 00:22:41;;;;;;;1.33;1.23;;;;;;;;;;5019996;28;58279;-68
2023/05/24 00:25:07;;;;;;;1.10;1.00;;;;;;;;;;5022568;28;58348;-69
2023/05/24 00:27:32;;;;;;;0.83;0.83;;;;;;;;;;5019353;28;58900;-68
2023/05/24 00:29:57;;;;;;;2.40;1.55;;;;;;;;;;5023811;28;58790;-68
2023/05/24 00:32:22;;;;;;;1.30;1.20;;;;;;;;;;5024173;28;59098;-68
2023/05/24 00:34:47;;;;;;;1.08;0.98;;;;;;;;;;5023860;28;58675;-69
2023/05/24 00:37:13;;;;;;;2.53;1.63;;;;;;;;;;5023081;28;58850;-67
2023/05/24 00:39:38;;;;;;;2.03;1.52;;;;;;;;;;5019472;28;59086;-63
2023/05/24 00:42:03;;;;;;;0.97;0.80;;;;;;;;;;5020998;28;58316;-68
2023/05/24 00:44:29;;;;;;;1.00;1.00;;;;;;;;;;5021874;28;59317;-68
2023/05/24 00:46:54;;;;;;;0.70;0.70;;;;;;;;;;5021803;28;59414;-67
2023/05/24 00:49:20;;;;;;;1.40;1.20;;;;;;;;;;5022988;28;58728;-69
2023/05/24 00:51:45;;;;;;;1.27;1.17;;;;;;;;;;5023656;28;59038;-69
2023/05/24 00:54:12;;;;;;;2.20;1.00;;;;;;;;;;5019538;28;58453;-68
2023/05/24 00:56:37;;;;;;;0.95;0.95;;;;;;;;;;5020650;28;59127;-69
2023/05/24 00:59:02;;;;;;;2.33;1.17;;;;;;;;;;5021282;28;58434;-69
2023/05/24 01:01:29;;;;;;;1.77;1.10;;;;;;;;;;5023148;28;58929;-68
2023/05/24 01:03:56;;;;;;;1.83;1.15;;;;;;;;;;5018635;28;58355;-65
2023/05/24 01:06:22;;;;;;;0.98;0.95;;;;;;;;;;5019184;28;59065;-66
2023/05/24 01:08:56;;;;;;;1.73;1.30;;;;;;;;;;5019421;28;58741;-69
2023/05/24 01:11:28;;;;;;;1.17;1.00;;;;;;;;;;5023918;28;64430;-69
2023/05/24 01:13:58;;;;;;;1.25;1.08;;;;;;;;;;5020534;28;58762;-68
2023/05/24 01:16:39;;;;;;;1.40;0.88;;;;;;;;;;5020120;28;58575;-68
2023/05/24 01:19:11;;;;;;;1.70;1.27;;;;;;;;;;5019632;28;59219;-68
2023/05/24 01:21:47;;;;;;;1.58;1.42;;;;;;;;;;5022343;28;58354;-68
2023/05/24 01:24:12;;;;;;;0.70;0.70;;;;;;;;;;5020010;28;58425;-68
2023/05/24 01:27:12;;;;;;;0.98;0.88;;;;;;;;;;5023978;28;58790;-69
2023/05/24 01:29:37;;;;;;;1.20;1.10;;;;;;;;;;4982245;28;58751;-68
2023/05/24 01:32:03;;;;;;;1.50;1.40;;;;;;;;;;5012180;28;58689;-68
2023/05/24 01:34:28;;;;;;;1.40;1.02;;;;;;;;;;5016183;28;57912;-68
2023/05/24 01:36:54;;;;;;;1.13;1.03;;;;;;;;;;5017311;28;58646;-66
2023/05/24 01:39:19;;;;;;;1.63;0.70;;;;;;;;;;5018286;28;59165;-68
2023/05/24 01:42:04;;;;;;;1.40;1.00;;;;;;;;;;5018288;28;58367;-68
2023/05/24 01:44:58;;;;;;;1.30;1.08;;;;;;;;;;5019523;28;62963;-68
2023/05/24 01:47:26;;;;;;;1.13;0.90;;;;;;;;;;4969783;28;63691;-69
2023/05/24 01:49:58;;;;;;;1.20;0.85;;;;;;;;;;5021531;28;58567;-68
2023/05/24 01:52:27;;;;;;;1.02;0.95;;;;;;;;;;5016596;28;59110;-68
2023/05/24 01:54:55;;;;;;;1.30;0.90;;;;;;;;;;5016397;28;58101;-69
2023/05/24 01:57:21;;;;;;;1.50;0.85;;;;;;;;;;5022253;28;58400;-67
2023/05/24 01:59:46;;;;;;;1.30;1.00;;;;;;;;;;5024526;28;58834;-68
2023/05/24 02:02:12;;;;;;;0.97;0.80;;;;;;;;;;5019021;28;58832;-68
2023/05/24 02:04:37;;;;;;;0.90;0.90;;;;;;;;;;5022233;28;58308;-69
2023/05/24 02:07:02;;;;;;;0.82;0.80;;;;;;;;;;5019373;28;58838;-69
2023/05/24 02:09:28;;;;;;;1.40;0.93;;;;;;;;;;5026315;28;58318;-69
2023/05/24 02:11:53;;;;;;;0.73;0.57;;;;;;;;;;5024089;28;58793;-70
2023/05/24 02:14:18;;;;;;;0.70;0.70;;;;;;;;;;5025428;28;59010;-68
2023/05/24 02:16:45;;;;;;;0.82;0.80;;;;;;;;;;5022840;28;58778;-69
2023/05/24 02:19:10;;;;;;;1.38;1.27;;;;;;;;;;5021843;28;59131;-69
2023/05/24 02:21:36;;;;;;;1.10;0.95;;;;;;;;;;5020411;28;58388;-69
2023/05/24 02:24:01;;;;;;;1.10;0.93;;;;;;;;;;5022958;28;59076;-64
2023/05/24 02:26:26;;;;;;;0.93;0.80;;;;;;;;;;5024926;28;58444;-66
2023/05/24 02:28:51;;;;;;;1.30;1.13;;;;;;;;;;5025778;28;58366;-65
2023/05/24 02:31:16;;;;;;;1.40;0.85;;;;;;;;;;5022104;28;58361;-68
2023/05/24 02:33:42;;;;;;;0.75;0.75;;;;;;;;;;5021804;28;58537;-68
2023/05/24 02:36:07;;;;;;;0.77;0.77;;;;;;;;;;5022164;28;58699;-68
2023/05/24 02:38:32;;;;;;;0.90;0.83;;;;;;;;;;5027182;28;58733;-68
2023/05/24 02:40:57;;;;;;;0.70;0.70;;;;;;;;;;5022515;28;58710;-69
2023/05/24 02:43:22;;;;;;;0.95;0.82;;;;;;;;;;5023734;28;58704;-68
2023/05/24 02:45:48;;;;;;;1.33;1.13;;;;;;;;;;5019717;28;58681;-69
2023/05/24 02:48:13;;;;;;;1.02;0.82;;;;;;;;;;5024121;28;58881;-69
2023/05/24 02:50:38;;;;;;;1.03;0.83;;;;;;;;;;5026591;28;58347;-65
2023/05/24 02:53:03;;;;;;;0.83;0.70;;;;;;;;;;5023796;28;58764;-69
2023/05/24 02:55:28;;;;;;;1.27;1.17;;;;;;;;;;5023331;28;58161;-68
2023/05/24 02:57:54;;;;;;;1.43;0.90;;;;;;;;;;5026385;28;58738;-67
2023/05/24 03:00:19;;;;;;;0.95;0.80;;;;;;;;;;5024828;28;58854;-69
2023/05/24 03:02:46;;;;;;;1.77;1.30;;;;;;;;;;5026378;28;58583;-68
2023/05/24 03:05:11;;;;;;;1.65;1.10;;;;;;;;;;5022073;28;58866;-69
2023/05/24 03:07:36;;;;;;;1.35;0.82;;;;;;;;;;5022459;28;58231;-67
2023/05/24 03:10:01;;;;;;;1.10;0.80;;;;;;;;;;5016617;28;58588;-69
2023/05/24 03:12:27;;;;;;;0.70;0.70;;;;;;;;;;5022721;28;59408;-67
2023/05/24 03:14:52;;;;;;;0.80;0.80;;;;;;;;;;5021233;28;58868;-68
2023/05/24 03:17:17;;;;;;;0.60;0.60;;;;;;;;;;5023079;28;58691;-69
2023/05/24 03:19:42;;;;;;;1.92;1.40;;;;;;;;;;5020786;28;58839;-67
2023/05/24 03:22:07;;;;;;;1.48;1.10;;;;;;;;;;5021901;28;58365;-68
2023/05/24 03:24:33;;;;;;;1.33;1.23;;;;;;;;;;5019252;28;58780;-68
2023/05/24 03:26:58;;;;;;;1.27;0.88;;;;;;;;;;5020897;28;58953;-68
2023/05/24 03:29:23;;;;;;;0.90;0.80;;;;;;;;;;5018958;28;58470;-69
2023/05/24 03:31:48;;;;;;;1.70;0.93;;;;;;;;;;5021462;28;58421;-67
2023/05/24 03:34:13;;;;;;;1.20;0.52;;;;;;;;;;5020031;28;58410;-69
2023/05/24 03:36:38;;;;;;;0.75;0.73;;;;;;;;;;5017478;28;58910;-65
2023/05/24 03:39:04;;;;;;;2.10;1.20;;;;;;;;;;5019584;28;58489;-69
2023/05/24 03:41:29;;;;;;;0.77;0.63;;;;;;;;;;5020481;28;58755;-69
2023/05/24 03:43:55;;;;;;;0.63;0.63;;;;;;;;;;5018922;28;59031;-69
2023/05/24 03:46:20;;;;;;;1.23;0.60;;;;;;;;;;5020110;28;58608;-68
2023/05/24 03:48:45;;;;;;;0.67;0.67;;;;;;;;;;5020046;28;58571;-69
2023/05/24 03:51:10;;;;;;;0.90;0.90;;;;;;;;;;5020252;28;58834;-69
2023/05/24 03:53:35;;;;;;;1.50;0.68;;;;;;;;;;5020869;28;58401;-67
2023/05/24 03:56:00;;;;;;;0.68;0.57;;;;;;;;;;5020810;28;58363;-69
2023/05/24 03:58:26;;;;;;;0.50;0.50;;;;;;;;;;5020881;28;58438;-69
2023/05/24 04:00:51;;;;;;;1.23;0.80;;;;;;;;;;5019075;28;58393;-65
2023/05/24 04:03:18;;;;;;;1.08;0.80;;;;;;;;;;5019908;28;58385;-68
2023/05/24 04:05:43;;;;;;;1.20;0.63;;;;;;;;;;5020073;28;59424;-68
2023/05/24 04:08:09;;;;;;;1.23;0.87;;;;;;;;;;5018982;28;58674;-69
2023/05/24 04:10:34;;;;;;;0.98;0.70;;;;;;;;;;5017932;28;58831;-67
2023/05/24 04:12:59;;;;;;;1.63;1.00;;;;;;;;;;5017379;28;58821;-68
2023/05/24 04:15:25;;;;;;;1.27;0.93;;;;;;;;;;5015411;28;59189;-68
2023/05/24 04:17:53;;;;;;;0.88;0.88;;;;;;;;;;5016963;28;58324;-66
2023/05/24 04:20:18;;;;;;;0.93;0.60;;;;;;;;;;5012785;28;58466;-69
2023/05/24 04:22:44;;;;;;;0.97;0.90;;;;;;;;;;5016869;28;59728;-68
2023/05/24 04:25:09;;;;;;;0.60;0.60;;;;;;;;;;5016876;28;58785;-67
2023/05/24 04:27:35;;;;;;;1.93;1.07;;;;;;;;;;5022009;28;58176;-64
2023/05/24 04:30:00;;;;;;;0.82;0.60;;;;;;;;;;5022198;28;58988;-68
2023/05/24 04:32:25;;;;;;;3.00;0.93;;;;;;;;;;5018408;28;57988;-67
2023/05/24 04:34:51;;;;;;;4.17;1.60;;;;;;;;;;5020104;28;58548;-66
2023/05/24 04:37:16;;;;;;;2.17;1.23;;;;;;;;;;5016888;28;58739;-66
2023/05/24 04:39:44;;;;;;;3.67;1.47;;;;;;;;;;5014685;28;58547;-67
2023/05/24 04:42:09;;;;;;;;;;;;;;;;;;5013026;28;60405;-65
2023/05/24 04:44:34;;;;;;;9.40;2.53;;;;;;;;;;5011093;28;58985;-64
2023/05/24 04:47:02;;;;;;;11.10;3.20;;;;;;;;;;5015575;28;58860;-67
2023/05/24 04:49:27;;;;;;;10.50;2.43;;;;;;;;;;5019877;28;58605;-66
2023/05/24 04:51:52;;;;;;;12.90;3.67;;;;;;;;;;5016115;28;58656;-65
2023/05/24 04:54:17;;;;;;;10.23;2.90;;;;;;;;;;5012118;28;58334;-66
2023/05/24 04:56:42;;;;;;;15.20;3.40;;;;;;;;;;5016694;28;58786;-66
2023/05/24 04:59:08;;;;;;;7.90;2.47;;;;;;;;;;5019125;28;58712;-64
2023/05/24 05:01:33;;;;;;;10.10;2.83;;;;;;;;;;5020023;28;59814;-66
2023/05/24 05:03:59;;;;;;;8.47;2.33;;;;;;;;;;5015815;28;58873;-66
2023/05/24 05:06:24;;;;;;;6.32;1.95;;;;;;;;;;5011361;28;58458;-66
2023/05/24 05:08:50;;;;;;;8.02;2.15;;;;;;;;;;5021147;28;58933;-66
2023/05/24 05:11:17;;;;;;;5.90;2.25;;;;;;;;;;5024953;28;59040;-67
2023/05/24 05:13:42;;;;;;;5.78;2.00;;;;;;;;;;5022214;28;58378;-66
2023/05/24 05:16:08;;;;;;;2.83;1.48;;;;;;;;;;5017658;28;58497;-67
2023/05/24 05:18:33;;;;;;;4.97;1.92;;;;;;;;;;5021255;28;58895;-67
2023/05/24 05:20:58;;;;;;;7.07;2.17;;;;;;;;;;5022323;28;59040;-66
2023/05/24 05:23:23;;;;;;;7.47;2.73;;;;;;;;;;5021994;28;58379;-67
2023/05/24 05:25:48;;;;;;;7.40;2.20;;;;;;;;;;5021403;28;58850;-66
2023/05/24 05:28:14;;;;;;;6.35;1.55;;;;;;;;;;5022742;28;58867;-67
2023/05/24 05:30:39;;;;;;;4.85;2.08;;;;;;;;;;5024168;28;58344;-63
2023/05/24 05:33:04;;;;;;;4.40;2.40;;;;;;;;;;5021044;28;58766;-66
2023/05/24 05:35:30;;;;;;;10.02;1.75;;;;;;;;;;5023789;28;59072;-67
2023/05/24 05:37:55;;;;;;;11.32;2.95;;;;;;;;;;5018968;28;58611;-66
2023/05/24 05:40:20;;;;;;;4.30;2.28;;;;;;;;;;5022152;28;58758;-66
2023/05/24 05:42:46;;;;;;;5.10;1.60;;;;;;;;;;5023363;28;58916;-65
2023/05/24 05:45:11;;;;;;;2.55;1.42;;;;;;;;;;5023235;28;58407;-67
2023/05/24 05:47:36;;;;;;;3.55;2.08;;;;;;;;;;5020999;28;58430;-66
2023/05/24 05:50:01;;;;;;;3.87;2.30;;;;;;;;;;5022790;28;58568;-67
2023/05/24 05:52:26;;;;;;;3.88;1.98;;;;;;;;;;5025177;28;58458;-65
2023/05/24 05:54:52;;;;;;;4.43;1.52;;;;;;;;;;5020528;28;58478;-67
2023/05/24 05:57:22;;;;;;;2.60;1.60;;;;;;;;;;5023752;28;59435;-66
2023/05/24 05:59:47;;;;;;;7.65;2.22;;;;;;;;;;5016496;28;59088;-67
2023/05/24 06:02:13;;;;;;;3.15;1.40;;;;;;;;;;5013148;28;58413;-65
2023/05/24 06:04:38;;;;;;;6.37;1.80;;;;;;;;;;5009738;28;58316;-66
2023/05/24 06:07:03;;;;;;;3.80;1.60;;;;;;;;;;5015276;28;58693;-67
2023/05/24 06:09:28;;;;;;;2.58;1.45;;;;;;;;;;5011445;28;58846;-66
2023/05/24 06:11:54;;;;;;;4.70;1.50;;;;;;;;;;5019502;28;58016;-67
2023/05/24 06:14:21;;;;;;;3.23;1.20;;;;;;;;;;5015282;28;59292;-65
2023/05/24 06:16:46;;;;;;;3.33;1.40;;;;;;;;;;5012293;28;58577;-66
2023/05/24 06:19:12;;;;;;;3.80;1.73;;;;;;;;;;5015297;28;58455;-66
2023/05/24 06:21:39;;;;;;;5.18;1.50;;;;;;;;;;5012124;28;58782;-66
2023/05/24 06:24:08;;;;;;;3.55;2.08;;;;;;;;;;5013158;28;58264;-66
2023/05/24 06:26:33;;;;;;;6.03;2.40;;;;;;;;;;5010605;28;59910;-66
2023/05/24 06:28:58;;;;;;;3.90;2.05;;;;;;;;;;5021440;28;58573;-66
2023/05/24 06:31:24;;;;;;;3.07;1.33;;;;;;;;;;5011172;28;58226;-66
2023/05/24 06:33:49;;;;;;;3.57;1.50;;;;;;;;;;5013666;28;59216;-66
2023/05/24 06:36:14;;;;;;;4.40;1.90;;;;;;;;;;5014061;28;58339;-67
2023/05/24 06:38:40;;;;;;;4.37;2.17;;;;;;;;;;5012348;28;58406;-63
2023/05/24 06:41:05;;;;;;;3.30;1.20;;;;;;;;;;5020099;28;58914;-66
2023/05/24 06:43:32;;;;;;;3.13;1.67;;;;;;;;;;5011744;28;58704;-66
2023/05/24 06:45:57;;;;;;;1.70;1.35;;;;;;;;;;5014108;28;59143;-65
2023/05/24 06:48:22;;;;;;;3.17;1.17;;;;;;;;;;5009592;28;58385;-66
2023/05/24 06:50:47;;;;;;;4.63;1.50;;;;;;;;;;5016895;28;58633;-67
2023/05/24 06:53:12;;;;;;;1.37;1.00;;;;;;;;;;5019724;28;60097;-66
2023/05/24 06:55:38;;;;;;;6.87;1.63;;;;;;;;;;5017072;28;58626;-66
2023/05/24 06:58:04;;;;;;;2.30;1.40;;;;;;;;;;5018139;28;58181;-67
2023/05/24 07:00:29;;;;;;;2.13;1.17;;;;;;;;;;5016396;28;58866;-67
2023/05/24 07:02:55;;;;;;;2.60;1.17;;;;;;;;;;5017152;28;58339;-65
2023/05/24 07:05:21;;;;;;;3.20;1.40;;;;;;;;;;5018432;28;59066;-66
2023/05/24 07:07:46;;;;;;;3.08;1.45;;;;;;;;;;5015325;28;58170;-66
2023/05/24 07:10:12;;;;;;;3.13;2.30;;;;;;;;;;5020076;28;58144;-66
2023/05/24 07:12:37;;;;;;;3.45;1.45;;;;;;;;;;5017036;28;59112;-67
2023/05/24 07:15:03;;;;;;;3.67;1.93;;;;;;;;;;5020152;28;58979;-66
2023/05/24 07:17:28;;;;;;;2.90;1.50;;;;;;;;;;5020676;28;58759;-66
2023/05/24 07:19:53;;;;;;;1.53;1.07;;;;;;;;;;5016057;28;58385;-65
2023/05/24 07:22:18;;;;;;;1.60;1.05;;;;;;;;;;5017810;28;58233;-67
2023/05/24 07:24:44;;;;;;;1.55;0.93;;;;;;;;;;5020180;28;58395;-66
2023/05/24 07:27:09;;;;;;;4.68;1.20;;;;;;;;;;5015596;28;58331;-66
2023/05/24 07:29:34;;;;;;;2.80;1.38;;;;;;;;;;5016829;28;58485;-67
2023/05/24 07:31:59;;;;;;;1.05;0.80;;;;;;;;;;5014914;28;58411;-67
2023/05/24 07:34:26;;;;;;;1.50;1.13;;;;;;;;;;5018447;28;58709;-66
2023/05/24 07:36:52;;;;;;;2.63;0.90;;;;;;;;;;5017014;28;58638;-66
2023/05/24 07:39:17;;;;;;;4.53;1.90;;;;;;;;;;5017121;28;58444;-66
2023/05/24 07:41:43;;;;;;;1.17;0.98;;;;;;;;;;5013114;28;58410;-66
2023/05/24 07:44:08;;;;;;;2.03;0.97;;;;;;;;;;5021654;28;58298;-66
2023/05/24 07:46:33;;;;;;;1.73;1.37;;;;;;;;;;5012075;28;58591;-66
2023/05/24 07:48:59;;;;;;;1.80;1.00;;;;;;;;;;5012080;28;58979;-66
2023/05/24 07:51:24;;;;;;;3.80;1.67;;;;;;;;;;5015082;28;58935;-66
2023/05/24 07:53:49;;;;;;;3.55;1.10;;;;;;;;;;5012556;28;58635;-66
2023/05/24 07:56:15;;;;;;;2.63;0.70;;;;;;;;;;5016901;28;58419;-66
2023/05/24 07:58:40;;;;;;;2.80;1.15;;;;;;;;;;5011956;28;60112;-66
2023/05/24 08:01:06;;;;;;;3.50;1.30;;;;;;;;;;5019465;28;58859;-66
2023/05/24 08:03:33;;;;;;;0.95;0.90;;;;;;;;;;5015181;28;58399;-66
2023/05/24 08:05:58;;;;;;;1.40;0.73;;;;;;;;;;5019209;28;59033;-67
2023/05/24 08:08:24;;;;;;;1.63;0.90;;;;;;;;;;5018796;28;58816;-66
2023/05/24 08:10:49;;;;;;;2.67;1.38;;;;;;;;;;5019305;28;58475;-66
2023/05/24 08:13:14;;;;;;;2.07;1.00;;;;;;;;;;5017052;28;58492;-66
2023/05/24 08:15:40;;;;;;;2.27;1.30;;;;;;;;;;5013838;28;58610;-63
2023/05/24 08:18:05;;;;;;;1.30;1.13;;;;;;;;;;5015287;28;58238;-66
2023/05/24 08:20:34;;;;;;;1.63;0.90;;;;;;;;;;5014101;28;58312;-67
2023/05/24 08:23:00;;;;;;;1.90;1.00;;;;;;;;;;5012698;28;58675;-66
2023/05/24 08:25:26;;;;;;;1.20;0.90;;;;;;;;;;5013253;28;58977;-66
2023/05/24 08:27:51;;;;;;;1.40;0.98;;;;;;;;;;5016444;28;58558;-66
2023/05/24 08:30:16;;;;;;;1.35;1.13;;;;;;;;;;5015786;28;58275;-65
2023/05/24 08:32:41;;;;;;;2.17;1.20;;;;;;;;;;5012903;28;58418;-66
2023/05/24 08:35:07;;;;;;;1.85;1.10;;;;;;;;;;5018172;28;58003;-65
2023/05/24 08:37:32;;;;;;;3.67;0.82;;;;;;;;;;5017601;28;59730;-66
2023/05/24 08:39:58;;;;;;;1.07;0.80;;;;;;;;;;5016001;28;58304;-67
2023/05/24 08:42:23;;;;;;;1.63;1.40;;;;;;;;;;5015218;28;58566;-66
2023/05/24 08:44:57;;;;;;;1.48;0.98;;;;;;;;;;5016302;28;59044;-65
2023/05/24 08:47:22;;;;;;;1.17;0.85;;;;;;;;;;5015354;28;64078;-67
2023/05/24 08:49:49;;;;;;;1.48;0.90;;;;;;;;;;5011799;28;58371;-66
2023/05/24 08:52:14;;;;;;;2.88;1.30;;;;;;;;;;5014135;28;58557;-67
2023/05/24 08:54:40;;;;;;;2.03;1.85;;;;;;;;;;5013993;28;58350;-63
2023/05/24 08:57:06;;;;;;;1.70;1.30;;;;;;;;;;5018212;28;58395;-66
2023/05/24 08:59:31;;;;;;;2.92;1.73;;;;;;;;;;5015342;28;59119;-66
2023/05/24 09:01:56;;;;;;;3.60;1.38;;;;;;;;;;5016396;28;58700;-65
2023/05/24 09:04:22;;;;;;;1.63;0.90;;;;;;;;;;5017814;28;57985;-66
2023/05/24 09:06:47;;;;;;;2.30;0.95;;;;;;;;;;5014775;28;59145;-66
2023/05/24 09:09:16;;;;;;;1.95;1.30;;;;;;;;;;5015370;28;58706;-66
2023/05/24 09:11:42;;;;;;;1.17;0.77;;;;;;;;;;5016448;28;59426;-67
2023/05/24 09:14:07;;;;;;;2.08;1.38;;;;;;;;;;5014266;28;58496;-66
2023/05/24 09:16:33;;;;;;;3.97;1.17;;;;;;;;;;5015416;28;58277;-65
2023/05/24 09:18:58;;;;;;;1.85;1.13;;;;;;;;;;5014750;28;58411;-67
2023/05/24 09:21:23;;;;;;;2.30;1.20;;;;;;;;;;5014449;28;58339;-66
2023/05/24 09:23:49;;;;;;;1.50;0.80;;;;;;;;;;5013218;28;59045;-66
2023/05/24 09:26:14;;;;;;;1.05;0.82;;;;;;;;;;5015888;28;58747;-66
2023/05/24 09:28:40;;;;;;;0.83;0.83;;;;;;;;;;5021665;28;59037;-63
2023/05/24 09:31:06;;;;;;;2.05;1.35;;;;;;;;;;5012003;28;59106;-67
2023/05/24 09:33:31;;;;;;;1.93;1.20;;;;;;;;;;5013394;28;58586;-67
2023/05/24 09:36:03;;;;;;;1.63;0.77;;;;;;;;;;5014220;28;59717;-67
2023/05/24 09:38:28;;;;;;;2.25;0.85;;;;;;;;;;5014958;28;58743;-66
2023/05/24 09:41:07;;;;;;;1.10;0.80;;;;;;;;;;5013731;28;58407;-66
2023/05/24 09:43:36;;;;;;;0.88;0.80;;;;;;;;;;5013136;28;58308;-67
2023/05/24 09:46:02;;;;;;;1.95;1.42;;;;;;;;;;5011188;28;58550;-67
2023/05/24 09:48:27;;;;;;;3.13;1.67;;;;;;;;;;5012503;28;58263;-66
2023/05/24 09:50:58;;;;;;;1.63;0.73;;;;;;;;;;5016212;28;58646;-67
2023/05/24 09:53:23;;;;;;;0.95;0.80;;;;;;;;;;5018326;28;61289;-67
2023/05/24 09:55:48;;;;;;;2.13;1.05;;;;;;;;;;5013305;28;59176;-66
2023/05/24 09:58:15;;;;;;;2.60;1.05;;;;;;;;;;5014563;28;58459;-66
2023/05/24 10:00:40;;;;;;;1.83;0.80;;;;;;;;;;5015198;28;58342;-66
2023/05/24 10:03:06;;;;;;;1.90;1.13;;;;;;;;;;5015596;28;59184;-66
2023/05/24 10:05:32;;;;;;;2.78;1.10;;;;;;;;;;5017809;28;60689;-66
2023/05/24 10:07:57;;;;;;;1.17;0.85;;;;;;;;;;5014665;28;58839;-66
2023/05/24 10:10:26;;;;;;;0.80;0.80;;;;;;;;;;5020291;28;58780;-66
2023/05/24 10:12:52;;;;;;;1.92;1.00;;;;;;;;;;5015955;28;58591;-66
2023/05/24 10:15:17;;;;;;;2.03;1.13;;;;;;;;;;5019720;28;58297;-67
2023/05/24 10:17:42;;;;;;;2.20;1.20;;;;;;;;;;5019152;28;58264;-66
2023/05/24 10:20:10;;;;;;;1.30;0.90;;;;;;;;;;5018448;28;58247;-66
2023/05/24 10:22:39;;;;;;;0.98;0.88;;;;;;;;;;5014344;28;58335;-67
2023/05/24 10:25:05;;;;;;;0.82;0.50;;;;;;;;;;5016796;28;58349;-67
2023/05/24 10:27:31;;;;;;;1.15;0.73;;;;;;;;;;5018084;28;58256;-67
2023/05/24 10:30:04;;;;;;;1.63;0.65;;;;;;;;;;5025091;28;58801;-66
2023/05/24 10:32:32;;;;;;;2.20;1.60;;;;;;;;;;5018748;28;58477;-67
2023/05/24 10:34:58;;;;;;;1.20;0.60;;;;;;;;;;5020979;28;58157;-66
2023/05/24 10:37:23;;;;;;;1.25;0.70;;;;;;;;;;5018266;28;58365;-66
2023/05/24 10:39:48;;;;;;;1.02;0.80;;;;;;;;;;5022233;28;58552;-67
2023/05/24 10:42:14;;;;;;;2.67;1.27;;;;;;;;;;5014097;28;58302;-67
2023/05/24 10:44:39;;;;;;;0.60;0.53;;;;;;;;;;5017421;28;58705;-67
2023/05/24 10:47:11;;;;;;;0.60;0.60;;;;;;;;;;5021258;28;58317;-67
2023/05/24 10:49:38;;;;;;;2.03;0.98;;;;;;;;;;5022715;28;58491;-66
2023/05/24 10:52:07;;;;;;;3.03;0.70;;;;;;;;;;5019968;28;58901;-67
2023/05/24 10:54:32;;;;;;;1.00;0.80;;;;;;;;;;5018723;28;58071;-65
2023/05/24 10:57:02;;;;;;;1.13;0.60;;;;;;;;;;5020963;28;58946;-67
2023/05/24 10:59:33;;;;;;;1.10;0.85;;;;;;;;;;5019893;28;59320;-66
2023/05/24 11:01:59;;;;;;;1.98;0.90;;;;;;;;;;5017643;28;59988;-66
2023/05/24 11:04:25;;;;;;;0.90;0.80;;;;;;;;;;5014219;28;58283;-66
2023/05/24 11:07:00;;;;;;;1.90;1.42;;;;;;;;;;5016157;28;58428;-67
2023/05/24 11:09:27;;;;;;;1.20;1.10;;;;;;;;;;5015345;28;59065;-67
2023/05/24 11:12:02;;;;;;;0.82;0.82;;;;;;;;;;5026094;28;58514;-66
2023/05/24 11:14:28;;;;;;;1.63;0.98;;;;;;;;;;5014054;28;58447;-66
2023/05/24 11:16:54;;;;;;;1.08;0.98;;;;;;;;;;5018622;28;58910;-66
2023/05/24 11:19:23;;;;;;;1.48;0.73;;;;;;;;;;5016621;28;58655;-67
2023/05/24 11:21:49;;;;;;;0.80;0.80;;;;;;;;;;5016925;28;58580;-65
2023/05/24 11:24:16;;;;;;;1.27;0.82;;;;;;;;;;5019775;28;58597;-66
2023/05/24 11:26:42;;;;;;;0.80;0.60;;;;;;;;;;5019223;28;58119;-67
2023/05/24 11:29:08;;;;;;;0.73;0.73;;;;;;;;;;5024349;28;59127;-67
2023/05/24 11:31:33;;;;;;;1.02;0.57;;;;;;;;;;5015752;28;58387;-67
2023/05/24 11:33:59;;;;;;;2.10;1.07;;;;;;;;;;5020356;28;58791;-66
2023/05/24 11:36:24;;;;;;;1.23;1.05;;;;;;;;;;5017843;28;58481;-67
2023/05/24 11:38:52;;;;;;;1.02;0.88;;;;;;;;;;5011911;28;59910;-66
2023/05/24 11:41:18;;;;;;;1.58;1.08;;;;;;;;;;5022319;28;58578;-66
2023/05/24 11:43:43;;;;;;;1.38;1.23;;;;;;;;;;5012592;28;58451;-66
2023/05/24 11:46:08;;;;;;;0.70;0.70;;;;;;;;;;5021382;28;58730;-66
2023/05/24 11:48:33;;;;;;;1.10;0.87;;;;;;;;;;5016214;28;58293;-67
2023/05/24 11:50:59;;;;;;;1.10;0.63;;;;;;;;;;5017378;28;59015;-66
2023/05/24 11:53:24;;;;;;;0.70;0.70;;;;;;;;;;5019576;28;58343;-66
2023/05/24 11:55:51;;;;;;;0.80;0.63;;;;;;;;;;5019040;28;59261;-67
2023/05/24 11:58:34;;;;;;;0.85;0.63;;;;;;;;;;5014070;28;58738;-65
2023/05/24 12:01:01;;;;;;;1.30;0.55;;;;;;;;;;5016854;28;58056;-66
2023/05/24 12:03:26;;;;;;;1.00;0.70;;;;;;;;;;5018456;28;59033;-66
2023/05/24 12:05:55;;;;;;;0.97;0.70;;;;;;;;;;5012979;28;58183;-68
2023/05/24 12:08:21;;;;;;;0.55;0.52;;;;;;;;;;5016566;28;59414;-66
2023/05/24 12:10:47;;;;;;;1.80;0.75;;;;;;;;;;5018078;28;58518;-66
2023/05/24 12:13:21;;;;;;;0.82;0.80;;;;;;;;;;5011809;28;58529;-65
2023/05/24 12:15:48;;;;;;;1.55;1.08;;;;;;;;;;5011938;28;59904;-66
2023/05/24 12:18:17;;;;;;;6.28;1.30;;;;;;;;;;5018075;28;58669;-64
2023/05/24 12:20:42;;;;;;;4.78;0.93;;;;;;;;;;5026118;28;58346;-64
2023/05/24 12:23:07;;;;;;;6.77;1.30;;;;;;;;;;5025030;28;58140;-66
2023/05/24 12:25:36;;;;;;;2.33;1.35;;;;;;;;;;5025192;28;58423;-66
2023/05/24 12:28:02;;;;;;;4.68;0.95;;;;;;;;;;5020562;28;58215;-66
2023/05/24 12:30:27;;;;;;;2.55;1.42;;;;;;;;;;5020053;28;58452;-67
2023/05/24 12:32:53;;;;;;;4.05;0.93;;;;;;;;;;5020769;28;58337;-67
2023/05/24 12:35:19;;;;;;;3.78;1.23;;;;;;;;;;5025231;28;59104;-67
2023/05/24 12:37:44;;;;;;;1.45;1.15;;;;;;;;;;5021821;28;58542;-68
2023/05/24 12:40:19;;;;;;;1.33;0.90;;;;;;;;;;5024020;28;58436;-67
2023/05/24 12:42:48;;;;;;;1.90;1.02;;;;;;;;;;5019796;28;59109;-66
2023/05/24 12:45:13;;;;;;;2.47;1.00;;;;;;;;;;5021243;28;58831;-67
2023/05/24 12:47:38;;;;;;;5.03;1.37;;;;;;;;;;5020755;28;58406;-67
2023/05/24 12:50:03;;;;;;;7.68;3.28;;;;;;;;;;5020617;28;58994;-67
2023/05/24 12:52:28;;;;;;;2.77;0.97;;;;;;;;;;5023332;28;58549;-67
2023/05/24 12:54:54;;;;;;;2.13;1.55;;;;;;;;;;5019687;28;58803;-67
2023/05/24 12:57:19;;;;;;;1.93;0.80;;;;;;;;;;5024775;28;58449;-67
2023/05/24 12:59:44;;;;;;;2.92;1.27;;;;;;;;;;5024683;28;58459;-66
2023/05/24 13:02:13;;;;;;;3.87;1.50;;;;;;;;;;5022138;28;58908;-67
2023/05/24 13:04:38;;;;;;;5.20;1.27;;;;;;;;;;5022286;28;58434;-67
2023/05/24 13:07:03;;;;;;;3.65;0.93;;;;;;;;;;5022424;28;58508;-68
2023/05/24 13:09:28;;;;;;;2.43;1.07;;;;;;;;;;5021876;28;58367;-66
2023/05/24 13:11:54;;;;;;;1.73;0.80;;;;;;;;;;5021673;28;58549;-67
2023/05/24 13:14:19;;;;;;;6.87;1.40;;;;;;;;;;5021665;28;58646;-65
2023/05/24 13:16:44;;;;;;;3.53;1.00;;;;;;;;;;5021822;28;58340;-67
2023/05/24 13:19:10;;;;;;;2.72;1.08;;;;;;;;;;5023047;28;58754;-67
2023/05/24 13:21:35;;;;;;;2.35;1.25;;;;;;;;;;5023560;28;59124;-65
2023/05/24 13:24:00;;;;;;;3.72;0.80;;;;;;;;;;5022299;28;58411;-67
2023/05/24 13:26:25;;;;;;;4.57;1.27;;;;;;;;;;5023658;28;58251;-67
2023/05/24 13:28:51;;;;;;;1.20;0.68;;;;;;;;;;5024201;28;59412;-67
2023/05/24 13:31:16;;;;;;;2.93;1.20;;;;;;;;;;5023012;28;58400;-67
2023/05/24 13:33:41;;;;;;;2.80;0.90;;;;;;;;;;5020985;28;59000;-64
2023/05/24 13:36:07;;;;;;;2.78;1.10;;;;;;;;;;5023374;28;58840;-67
2023/05/24 13:38:32;;;;;;;1.97;0.80;;;;;;;;;;5022338;28;58593;-66
2023/05/24 13:40:58;;;;;;;3.08;1.08;;;;;;;;;;5021457;28;59743;-68
2023/05/24 13:43:23;;;;;;;1.67;0.88;;;;;;;;;;5020176;28;58308;-67
2023/05/24 13:45:48;;;;;;;0.90;0.50;;;;;;;;;;5022255;28;58689;-67
2023/05/24 13:48:14;;;;;;;3.03;1.43;;;;;;;;;;5022563;28;59441;-68
2023/05/24 13:50:39;;;;;;;2.33;1.02;;;;;;;;;;5023027;28;60625;-67
2023/05/24 13:53:04;;;;;;;1.08;0.95;;;;;;;;;;5022491;28;58767;-66
2023/05/24 13:55:31;;;;;;;3.85;0.80;;;;;;;;;;5023417;28;58946;-67
2023/05/24 13:57:56;;;;;;;1.40;1.17;;;;;;;;;;5023821;28;58413;-68
2023/05/24 14:00:22;;;;;;;1.73;1.00;;;;;;;;;;5021899;28;58952;-67
2023/05/24 14:02:47;;;;;;;2.83;1.15;;;;;;;;;;5020360;28;58488;-67
2023/05/24 14:05:12;;;;;;;4.43;1.00;;;;;;;;;;5028017;28;59268;-67
2023/05/24 14:07:37;;;;;;;1.93;1.23;;;;;;;;;;5025388;28;58608;-66
2023/05/24 14:10:03;;;;;;;2.15;1.05;;;;;;;;;;5023794;28;58561;-67
2023/05/24 14:12:28;;;;;;;1.10;0.80;;;;;;;;;;5026575;28;58558;-67
2023/05/24 14:14:53;;;;;;;4.87;1.57;;;;;;;;;;5026956;28;58675;-67
2023/05/24 14:17:18;;;;;;;1.87;1.43;;;;;;;;;;5027735;28;58449;-67
2023/05/24 14:19:43;;;;;;;0.87;0.70;;;;;;;;;;5026755;28;58454;-67
2023/05/24 14:22:09;;;;;;;2.22;0.95;;;;;;;;;;5026357;28;58296;-67
2023/05/24 14:24:34;;;;;;;0.87;0.70;;;;;;;;;;5027434;28;58847;-64
2023/05/24 14:27:00;;;;;;;2.37;1.77;;;;;;;;;;5026139;28;59009;-67
2023/05/24 14:29:25;;;;;;;1.30;0.85;;;;;;;;;;5025592;28;58735;-66
2023/05/24 14:31:50;;;;;;;0.65;0.65;;;;;;;;;;5024910;28;58744;-68
2023/05/24 14:34:15;;;;;;;2.83;0.80;;;;;;;;;;5027572;28;58699;-67
2023/05/24 14:36:41;;;;;;;2.70;1.00;;;;;;;;;;5025344;28;58709;-63